»·PEaware :: HYDRA61 KDLF-KSKF

HYDRA61 :: KDLF-KSKF

FLIGHT INFORMATION

Flight Status: Arrived
Operator: Unknown
More flights by this operator :: More flights under this callsign
Pilot: 47th FTW Laughlin (28783)
Aircraft: BEECH AIRCRAFT T-6A TEXAN
(TEX2)
More flights by this aircraft type
Origin: KDLF Laughlin AFB
United States
Destination: KSKF Lackland AFB Kelly Fld Annex
United States
More flights between these airports :: More routes between these airports
Route: +HINKO1 CSI CSI2 KSAT/D0+15
File this flight plan on PilotEdge
Remarks:
Altitude:
(Current/Filed)
19,000ft
Speed:
(Current/Filed)
254kts
Departed: 29-Jul-20 07:06 AM
Arrived: 29-Jul-20 08:06 AM
Distance/Time
Traveled:
115nm/1:00
Distance/Time
To Go:
Arrived

Flight Plot

Page will automatically refresh every two minutes.

Flight plan parsing failed; only flown route is shown


Map Options




Map Legend


Flown Route
Filed Route
Departure Airport
Arrival Airport
Navaid (VOR, NDB)
Fix

Horizontal Profiles

Position Reports

Time Latitude Longitude Heading Altitude Ground
Speed
29-Jul-20 06:50 29.362984 -100.788158 45 1074ft 0kts
29-Jul-20 06:51 29.362984 -100.788158 45 1074ft 0kts
29-Jul-20 06:52 29.362983 -100.788158 45 1074ft 0kts
29-Jul-20 06:53 29.362983 -100.788158 45 1074ft 0kts
29-Jul-20 06:54 29.362983 -100.788158 45 1074ft 0kts
29-Jul-20 06:55 29.362983 -100.788158 45 1074ft 0kts
29-Jul-20 06:56 29.362983 -100.788158 45 1074ft 0kts
29-Jul-20 06:57 29.362983 -100.788158 45 1074ft 0kts
29-Jul-20 06:58 29.362983 -100.788158 45 1074ft 0kts
29-Jul-20 06:59 29.362983 -100.788158 45 1074ft 0kts
29-Jul-20 07:00 29.362983 -100.788158 45 1074ft 0kts
29-Jul-20 07:01 29.363293 -100.787965 345 1074ft 4kts
29-Jul-20 07:02 29.365618 -100.789255 41 1077ft 8kts
29-Jul-20 07:03 29.366385 -100.788353 46 1079ft 8kts
29-Jul-20 07:04 29.366650 -100.788045 42 1079ft 0kts
29-Jul-20 07:05 29.360244 -100.779425 135 1229ft 132kts
29-Jul-20 07:06 29.327318 -100.742923 135 3728ft 172kts
29-Jul-20 07:07 29.302362 -100.698054 74 6452ft 198kts
29-Jul-20 07:08 29.353026 -100.687302 357 9343ft 206kts
29-Jul-20 07:09 29.410753 -100.694221 354 12314ft 209kts
29-Jul-20 07:10 29.468422 -100.700975 354 15343ft 221kts
29-Jul-20 07:11 29.507868 -100.649155 39 17668ft 226kts
29-Jul-20 07:12 29.557478 -100.600811 42 19074ft 262kts
29-Jul-20 07:13 29.619845 -100.548496 38 19154ft 292kts
29-Jul-20 07:14 29.683251 -100.488269 37 18985ft 299kts
29-Jul-20 07:15 29.750656 -100.432333 36 18868ft 300kts
29-Jul-20 07:16 29.816977 -100.376313 37 19055ft 296kts
29-Jul-20 07:17 29.882345 -100.317928 38 19019ft 299kts
29-Jul-20 07:18 29.950214 -100.263025 38 19061ft 296kts
29-Jul-20 07:19 30.008161 -100.196091 69 18856ft 298kts
29-Jul-20 07:20 30.006149 -100.103009 97 18934ft 296kts
29-Jul-20 07:21 29.997415 -100.009184 98 18875ft 293kts
29-Jul-20 07:22 29.987347 -99.915897 96 18698ft 297kts
29-Jul-20 07:23 29.978756 -99.822631 96 16721ft 298kts
29-Jul-20 07:24 29.973191 -99.727474 94 14853ft 281kts
29-Jul-20 07:25 29.967740 -99.648976 97 18479ft 218kts
29-Jul-20 07:26 29.961912 -99.580354 93 18879ft 235kts
29-Jul-20 07:27 29.955633 -99.495991 95 18861ft 283kts
29-Jul-20 07:28 29.947946 -99.404248 100 16132ft 293kts
29-Jul-20 07:29 29.935713 -99.311652 98 12968ft 295kts
29-Jul-20 07:30 29.920749 -99.223097 101 11080ft 275kts
29-Jul-20 07:31 29.892832 -99.197139 169 10508ft 263kts
29-Jul-20 07:32 29.882641 -99.192912 145 10399ft 257kts
29-Jul-20 07:33 29.875772 -99.164439 103 10186ft 248kts
29-Jul-20 07:34 29.862791 -99.104998 103 10162ft 234kts
29-Jul-20 07:35 29.836179 -99.030794 121 8569ft 251kts
29-Jul-20 07:36 29.814442 -98.952364 111 6409ft 258kts
29-Jul-20 07:37 29.794391 -98.876316 112 4769ft 246kts
29-Jul-20 07:38 29.771090 -98.820838 125 3501ft 157kts
29-Jul-20 07:39 29.743114 -98.774144 122 3791ft 173kts
29-Jul-20 07:40 29.715755 -98.726162 126 3079ft 175kts
29-Jul-20 07:41 29.690754 -98.677918 126 3086ft 188kts
29-Jul-20 07:42 29.657875 -98.634631 135 2975ft 165kts
29-Jul-20 07:43 29.628558 -98.596816 129 2759ft 156kts
29-Jul-20 07:44 29.606917 -98.567760 129 2619ft 104kts
29-Jul-20 07:45 29.588351 -98.543665 134 2154ft 101kts
29-Jul-20 07:46 29.568744 -98.519574 128 1603ft 104kts
29-Jul-20 07:47 29.549346 -98.494107 132 1009ft 105kts
29-Jul-20 07:48 29.530512 -98.469537 130 1218ft 143kts
29-Jul-20 07:49 29.495446 -98.432198 167 3213ft 209kts
29-Jul-20 07:50 29.438462 -98.412653 163 2807ft 200kts
29-Jul-20 07:51 29.387926 -98.396144 161 2990ft 191kts
29-Jul-20 07:52 29.335893 -98.380012 164 3141ft 195kts
29-Jul-20 07:53 29.282571 -98.361306 163 3003ft 201kts
29-Jul-20 07:54 29.229094 -98.342496 163 2973ft 202kts
29-Jul-20 07:55 29.176205 -98.339981 239 2598ft 219kts
29-Jul-20 07:56 29.161190 -98.405618 253 2592ft 210kts
29-Jul-20 07:57 29.165562 -98.465680 316 2501ft 199kts
29-Jul-20 07:58 29.202734 -98.511200 338 2512ft 190kts
29-Jul-20 07:59 29.249144 -98.532994 346 2500ft 139kts
29-Jul-20 08:00 29.287898 -98.547158 344 2597ft 143kts
29-Jul-20 08:01 29.324261 -98.560625 347 1632ft 125kts
29-Jul-20 08:02 29.356486 -98.571202 344 1007ft 120kts
29-Jul-20 08:03 29.382911 -98.580679 345 692ft 52kts
29-Jul-20 08:04 29.392487 -98.582093 86 692ft 44kts
29-Jul-20 08:05 29.391199 -98.577335 265 692ft 1kts
29-Jul-20 08:06 29.391199 -98.577337 267 692ft 0kts
29-Jul-20 08:07 29.391199 -98.577337 267 692ft 0kts
29-Jul-20 08:09 29.391199 -98.577337 267 692ft 0kts
29-Jul-20 08:10 29.391199 -98.577337 267 692ft 0kts
29-Jul-20 08:11 29.391199 -98.577337 267 692ft 0kts
29-Jul-20 08:12 29.391199 -98.577337 267 692ft 0kts
29-Jul-20 08:13 29.391199 -98.577337 267 692ft 0kts
29-Jul-20 08:14 29.391199 -98.577337 267 692ft 0kts
29-Jul-20 08:15 29.391199 -98.577337 267 692ft 0kts
29-Jul-20 08:16 29.391199 -98.577337 267 692ft 0kts
29-Jul-20 08:17 29.391199 -98.577337 267 692ft 0kts
29-Jul-20 08:18 29.391199 -98.577337 267 692ft 0kts
29-Jul-20 08:19 29.391199 -98.577337 267 692ft 0kts
29-Jul-20 08:20 29.391199 -98.577337 267 692ft 0kts

Navigation Log

Ident Type
Flight plan parsing failed, navigation log unavailable